Time;durP1;ratioP1;P1;durP2;ratioP2;P2;SDS_P1;SDS_P2;PMS_P1;PMS_P2;Temp;Humidity;BMP_temperature;BMP_pressure;BME280_temperature;BME280_humidity;BME280_pressure;Samples;Min_cycle;Max_cycle;Signal;HPM_P1;HPM_P2
2021/08/08 00:00:15;;;;;;;4.55;2.60;;;14.10;99.90;;;;;;5060916;28;20072;-64
2021/08/08 00:02:42;;;;;;;3.75;2.63;;;14.10;99.90;;;;;;5053600;28;20056;-64
2021/08/08 00:05:10;;;;;;;5.32;2.75;;;14.10;99.90;;;;;;5061750;28;20057;-64
2021/08/08 00:07:36;;;;;;;4.30;2.88;;;14.10;99.90;;;;;;5056001;28;20045;-64
2021/08/08 00:10:04;;;;;;;5.53;3.22;;;14.10;99.90;;;;;;5062674;28;20096;-64
2021/08/08 00:12:30;;;;;;;5.63;3.13;;;14.10;99.90;;;;;;5051175;28;20051;-65
2021/08/08 00:14:56;;;;;;;7.63;3.13;;;14.10;99.90;;;;;;5057316;28;20045;-64
2021/08/08 00:17:22;;;;;;;4.60;3.13;;;14.10;99.90;;;;;;5062783;28;20527;-64
2021/08/08 00:19:48;;;;;;;4.25;3.25;;;14.10;99.90;;;;;;5056944;28;20050;-63
2021/08/08 00:22:14;;;;;;;5.50;2.85;;;14.10;99.90;;;;;;5059656;28;20095;-64
2021/08/08 00:24:39;;;;;;;4.03;2.95;;;14.10;99.90;;;;;;5058456;28;20040;-64
2021/08/08 00:27:05;;;;;;;5.20;3.22;;;14.10;99.90;;;;;;5061371;28;20045;-64
2021/08/08 00:29:31;;;;;;;8.35;3.95;;;14.10;99.90;;;;;;5061004;28;20108;-64
2021/08/08 00:31:57;;;;;;;4.03;3.00;;;14.00;99.90;;;;;;5051792;28;20045;-64
2021/08/08 00:34:23;;;;;;;6.22;3.58;;;14.00;99.90;;;;;;5057258;28;20052;-64
2021/08/08 00:36:49;;;;;;;8.52;3.97;;;14.00;99.90;;;;;;5052054;28;20047;-64
2021/08/08 00:39:17;;;;;;;6.53;3.80;;;13.90;99.90;;;;;;5059224;28;20047;-64
2021/08/08 00:41:43;;;;;;;9.32;4.30;;;13.90;99.90;;;;;;5051963;28;20063;-64
2021/08/08 00:44:09;;;;;;;6.35;4.22;;;13.80;99.90;;;;;;5058176;28;20045;-64
2021/08/08 00:46:35;;;;;;;6.55;4.32;;;13.80;99.90;;;;;;5050878;28;20049;-63
2021/08/08 00:49:01;;;;;;;7.85;4.60;;;13.80;99.90;;;;;;5057626;28;20057;-64
2021/08/08 00:51:27;;;;;;;7.78;4.25;;;13.80;99.90;;;;;;5051423;28;20052;-63
2021/08/08 00:53:54;;;;;;;6.40;4.40;;;13.80;99.90;;;;;;5055695;28;20487;-63
2021/08/08 00:56:19;;;;;;;10.30;4.25;;;13.80;99.90;;;;;;5062281;28;20043;-64
2021/08/08 00:58:45;;;;;;;9.80;5.45;;;13.80;99.90;;;;;;5055016;28;20072;-64
2021/08/08 01:01:16;;;;;;;10.38;4.65;;;13.80;99.90;;;;;;5061982;28;20252;-64
2021/08/08 01:03:43;;;;;;;11.48;4.90;;;13.80;99.90;;;;;;5063182;28;20056;-64
2021/08/08 01:06:12;;;;;;;6.30;4.32;;;13.90;99.90;;;;;;5060958;28;20041;-64
2021/08/08 01:08:44;;;;;;;8.48;4.38;;;13.90;99.90;;;;;;5054698;28;20050;-64
2021/08/08 01:11:11;;;;;;;6.78;4.30;;;13.90;99.90;;;;;;5050369;28;20045;-64
2021/08/08 01:13:37;;;;;;;;;;;14.00;99.90;;;;;;5054788;28;20061;-64
2021/08/08 01:16:04;;;;;;;7.20;4.18;;;14.00;99.90;;;;;;5058455;28;19944;-63
2021/08/08 01:18:31;;;;;;;6.00;4.27;;;14.00;99.90;;;;;;5063394;28;20083;-64
2021/08/08 01:20:58;;;;;;;6.35;4.00;;;14.10;99.90;;;;;;5058753;28;20063;-65
2021/08/08 01:23:24;;;;;;;8.95;4.38;;;14.10;99.90;;;;;;5056763;28;20049;-64
2021/08/08 01:25:51;;;;;;;8.73;4.22;;;14.20;99.90;;;;;;5053437;28;20090;-64
2021/08/08 01:28:17;;;;;;;6.45;3.70;;;14.20;99.90;;;;;;5057389;28;20049;-64
2021/08/08 01:30:43;;;;;;;4.38;3.67;;;14.20;99.90;;;;;;5050680;28;20118;-64
2021/08/08 01:33:11;;;;;;;5.10;3.78;;;14.20;99.90;;;;;;5055519;28;20568;-63
2021/08/08 01:35:37;;;;;;;8.40;5.00;;;14.20;99.90;;;;;;5061086;28;20065;-64
2021/08/08 01:38:03;;;;;;;8.63;4.07;;;14.20;99.90;;;;;;5063267;28;20049;-64
2021/08/08 01:40:35;;;;;;;7.20;3.78;;;14.30;99.90;;;;;;5064500;28;20052;-64
2021/08/08 01:43:08;;;;;;;5.55;3.97;;;14.40;99.90;;;;;;5061130;28;20252;-64
2021/08/08 01:45:37;;;;;;;7.35;3.83;;;14.30;99.90;;;;;;5063884;28;20397;-64
2021/08/08 01:48:04;;;;;;;5.72;3.67;;;14.40;99.90;;;;;;5059855;28;20053;-64
2021/08/08 01:50:32;;;;;;;4.55;4.10;;;14.50;99.90;;;;;;5063730;28;20053;-64
2021/08/08 01:53:02;;;;;;;7.78;4.60;;;14.50;99.90;;;;;;5058108;28;20053;-64
2021/08/08 01:55:29;;;;;;;7.63;4.70;;;14.50;99.90;;;;;;5050632;28;20053;-64
2021/08/08 01:57:55;;;;;;;6.30;4.30;;;14.40;99.90;;;;;;5056901;28;20049;-66
2021/08/08 02:00:24;;;;;;;6.40;4.20;;;14.50;99.90;;;;;;5063813;28;20132;-64
2021/08/08 02:02:56;;;;;;;7.57;4.43;;;14.40;99.90;;;;;;5050020;28;20052;-64
2021/08/08 02:05:24;;;;;;;7.70;4.05;;;14.50;99.90;;;;;;5062652;28;20104;-64
2021/08/08 02:07:50;;;;;;;7.30;4.00;;;14.60;99.90;;;;;;5055757;28;20049;-64
2021/08/08 02:10:16;;;;;;;8.25;4.10;;;14.70;99.90;;;;;;5062392;28;20044;-64
2021/08/08 02:12:42;;;;;;;6.88;4.15;;;14.70;99.90;;;;;;5054814;28;20132;-64
2021/08/08 02:15:09;;;;;;;7.32;4.45;;;14.70;99.90;;;;;;5062019;28;20059;-64
2021/08/08 02:17:41;;;;;;;7.70;4.20;;;14.70;99.90;;;;;;5049718;28;20045;-63
2021/08/08 02:20:10;;;;;;;5.90;3.72;;;14.70;99.90;;;;;;5059957;28;20049;-64
2021/08/08 02:22:36;;;;;;;8.77;4.20;;;14.70;99.90;;;;;;5053106;28;20033;-64
2021/08/08 02:25:03;;;;;;;6.45;4.60;;;14.70;99.90;;;;;;5059430;28;20053;-64
2021/08/08 02:27:29;;;;;;;6.93;4.90;;;14.70;99.90;;;;;;5065784;28;20047;-64
2021/08/08 02:29:54;;;;;;;6.25;4.55;;;14.70;99.90;;;;;;5054735;28;20335;-65
2021/08/08 02:32:20;;;;;;;9.52;5.40;;;14.70;99.90;;;;;;5061308;28;20045;-63
2021/08/08 02:34:46;;;;;;;9.68;4.78;;;14.70;99.90;;;;;;5053740;28;20036;-65
2021/08/08 02:37:12;;;;;;;9.20;5.10;;;14.70;99.90;;;;;;5059746;28;20095;-64
2021/08/08 02:39:37;;;;;;;9.68;6.25;;;14.70;99.90;;;;;;5052841;28;20049;-65
2021/08/08 02:42:04;;;;;;;10.15;4.97;;;14.70;99.90;;;;;;5059964;28;20045;-64
2021/08/08 02:44:29;;;;;;;9.07;4.93;;;14.80;99.90;;;;;;5052417;28;20076;-65
2021/08/08 02:46:55;;;;;;;8.32;5.05;;;14.80;99.90;;;;;;5057987;28;20048;-65
2021/08/08 02:49:21;;;;;;;9.38;4.85;;;14.80;99.90;;;;;;5064271;28;20060;-65
2021/08/08 02:51:47;;;;;;;6.93;5.65;;;14.70;99.90;;;;;;5056052;28;20128;-65
2021/08/08 02:54:16;;;;;;;7.28;5.00;;;14.70;99.90;;;;;;5063722;28;20052;-65
2021/08/08 02:56:42;;;;;;;7.20;5.75;;;14.60;99.90;;;;;;5055706;28;20075;-64
2021/08/08 02:59:08;;;;;;;8.32;6.13;;;14.60;99.90;;;;;;5062449;28;20507;-64
2021/08/08 03:01:33;;;;;;;7.82;6.07;;;14.50;99.90;;;;;;5055276;28;20041;-65
2021/08/08 03:04:00;;;;;;;11.30;5.85;;;14.50;99.90;;;;;;5062000;28;20041;-64
2021/08/08 03:06:25;;;;;;;9.77;6.82;;;14.50;99.90;;;;;;5055920;28;20069;-65
2021/08/08 03:08:51;;;;;;;8.60;6.15;;;14.50;99.90;;;;;;5059467;28;20045;-65
2021/08/08 03:11:18;;;;;;;10.57;6.50;;;14.50;99.90;;;;;;5057359;28;20041;-64
2021/08/08 03:13:45;;;;;;;9.02;6.72;;;14.70;99.90;;;;;;5059973;28;20037;-64
2021/08/08 03:16:12;;;;;;;10.05;6.63;;;14.70;99.90;;;;;;5058247;28;20041;-64
2021/08/08 03:18:38;;;;;;;9.07;6.72;;;14.70;99.90;;;;;;5047959;28;20045;-64
2021/08/08 03:21:06;;;;;;;7.68;6.18;;;14.80;99.90;;;;;;5058806;28;20041;-64
2021/08/08 03:23:32;;;;;;;11.80;6.65;;;14.80;99.90;;;;;;5052960;28;20477;-64
2021/08/08 03:25:58;;;;;;;8.18;6.63;;;14.80;99.90;;;;;;5059471;28;20043;-64
2021/08/08 03:28:24;;;;;;;8.35;6.68;;;14.80;99.90;;;;;;5051959;28;20124;-64
2021/08/08 03:30:50;;;;;;;9.10;7.18;;;14.80;99.90;;;;;;5054776;28;20060;-64
2021/08/08 03:33:16;;;;;;;9.23;6.80;;;14.80;99.90;;;;;;5061755;28;20049;-64
2021/08/08 03:35:41;;;;;;;8.73;7.25;;;14.80;99.90;;;;;;5053461;28;20074;-64
2021/08/08 03:38:07;;;;;;;9.43;7.03;;;14.80;99.90;;;;;;5060606;28;20041;-64
2021/08/08 03:40:34;;;;;;;14.20;8.23;;;14.80;99.90;;;;;;5053358;28;20041;-65
2021/08/08 03:43:01;;;;;;;11.20;8.10;;;14.80;99.90;;;;;;5059801;28;20104;-66
2021/08/08 03:45:27;;;;;;;12.85;7.60;;;14.80;99.90;;;;;;5053297;28;20069;-64
2021/08/08 03:47:53;;;;;;;11.13;8.13;;;14.80;99.90;;;;;;5020677;28;1080712;-64
2021/08/08 03:50:18;;;;;;;10.77;8.75;;;14.80;99.90;;;;;;5051343;28;20104;-64
2021/08/08 03:52:44;;;;;;;10.68;7.72;;;14.80;99.90;;;;;;5058573;28;20075;-64
2021/08/08 03:55:10;;;;;;;9.35;8.45;;;14.70;99.90;;;;;;5051313;28;20052;-65
2021/08/08 03:57:36;;;;;;;10.15;9.15;;;14.80;99.90;;;;;;5056952;28;20048;-64
2021/08/08 04:00:03;;;;;;;12.10;8.98;;;14.70;99.90;;;;;;5063551;28;20055;-64
2021/08/08 04:02:28;;;;;;;14.05;10.00;;;14.70;99.90;;;;;;5047067;28;20045;-64
2021/08/08 04:04:54;;;;;;;15.13;10.13;;;14.60;99.90;;;;;;5059067;28;20045;-64
2021/08/08 04:07:21;;;;;;;15.43;10.38;;;14.60;99.90;;;;;;5055643;28;20047;-64
2021/08/08 04:09:46;;;;;;;19.55;12.05;;;14.50;99.90;;;;;;5062904;28;21196;-64
2021/08/08 04:12:12;;;;;;;19.50;11.95;;;14.50;99.90;;;;;;5055266;28;20045;-63
2021/08/08 04:14:38;;;;;;;12.88;10.38;;;14.40;99.90;;;;;;5061828;28;20516;-64
2021/08/08 04:17:05;;;;;;;16.42;12.93;;;14.40;99.90;;;;;;5054336;28;20044;-64
2021/08/08 04:19:32;;;;;;;14.07;11.98;;;14.40;99.90;;;;;;5061275;28;20040;-64
2021/08/08 04:21:58;;;;;;;14.50;11.77;;;14.40;99.90;;;;;;5053529;28;20099;-64
2021/08/08 04:24:24;;;;;;;14.10;11.75;;;14.40;99.90;;;;;;5060723;28;20044;-64
2021/08/08 04:26:50;;;;;;;15.43;12.15;;;14.40;99.90;;;;;;5054822;28;20041;-64
2021/08/08 04:29:17;;;;;;;17.77;12.43;;;14.40;99.90;;;;;;5054254;28;20045;-64
2021/08/08 04:31:43;;;;;;;14.82;11.38;;;14.50;99.90;;;;;;5062522;28;20315;-64
2021/08/08 04:34:09;;;;;;;18.65;13.20;;;14.50;99.90;;;;;;5056451;28;20045;-64
2021/08/08 04:36:35;;;;;;;18.45;12.57;;;14.50;99.90;;;;;;5059997;28;20045;-63
2021/08/08 04:39:01;;;;;;;15.10;12.23;;;14.50;99.90;;;;;;5057690;28;20042;-64
2021/08/08 04:41:27;;;;;;;17.70;13.00;;;14.50;99.90;;;;;;5057525;28;20068;-64
2021/08/08 04:43:53;;;;;;;17.48;12.82;;;14.50;99.90;;;;;;5058870;28;20050;-63
2021/08/08 04:46:19;;;;;;;17.23;12.70;;;14.60;99.90;;;;;;5054707;28;20045;-66
2021/08/08 04:48:44;;;;;;;20.67;14.10;;;14.60;99.90;;;;;;5059977;28;20053;-63
2021/08/08 04:51:10;;;;;;;15.15;12.23;;;14.70;99.90;;;;;;5052987;28;20141;-63
2021/08/08 04:53:36;;;;;;;18.10;13.07;;;14.70;99.90;;;;;;5059888;28;20658;-63
2021/08/08 04:56:02;;;;;;;22.80;14.15;;;14.80;99.90;;;;;;5052497;28;20045;-63
2021/08/08 04:58:28;;;;;;;16.27;14.35;;;14.80;99.90;;;;;;5058715;28;20102;-64
2021/08/08 05:00:54;;;;;;;18.10;13.73;;;14.90;99.90;;;;;;5046032;28;20053;-64
2021/08/08 05:03:19;;;;;;;18.20;14.05;;;14.90;99.90;;;;;;5047094;28;20038;-64
2021/08/08 05:05:45;;;;;;;16.05;13.93;;;15.00;99.90;;;;;;5063703;28;20049;-63
2021/08/08 05:08:11;;;;;;;21.35;14.18;;;15.10;99.90;;;;;;5056605;28;20052;-64
2021/08/08 05:10:37;;;;;;;20.38;13.77;;;15.10;99.90;;;;;;5049555;28;20049;-64
2021/08/08 05:13:02;;;;;;;18.67;13.85;;;15.20;99.90;;;;;;5051588;28;20048;-65
2021/08/08 05:15:28;;;;;;;15.07;12.68;;;15.30;99.90;;;;;;5059402;28;20149;-64
2021/08/08 05:17:54;;;;;;;16.73;13.07;;;15.50;99.90;;;;;;5063891;28;20145;-64
2021/08/08 05:20:20;;;;;;;15.75;11.57;;;15.60;99.90;;;;;;5061415;28;20049;-64
2021/08/08 05:22:46;;;;;;;14.35;11.30;;;15.70;99.90;;;;;;5054692;28;20052;-64
2021/08/08 05:25:12;;;;;;;17.25;10.85;;;15.80;99.90;;;;;;5061700;28;20064;-64
2021/08/08 05:27:38;;;;;;;12.75;9.52;;;15.70;99.90;;;;;;5053803;28;20079;-64
2021/08/08 05:30:06;;;;;;;9.60;8.32;;;15.80;99.90;;;;;;5056569;28;20044;-64
2021/08/08 05:32:32;;;;;;;;;;;15.70;99.90;;;;;;5051112;28;20101;-63
2021/08/08 05:34:58;;;;;;;13.68;8.00;;;15.70;99.90;;;;;;5055198;28;19955;-65
2021/08/08 05:37:23;;;;;;;9.65;8.25;;;15.70;99.90;;;;;;5062416;28;20056;-64
2021/08/08 05:39:51;;;;;;;11.27;7.70;;;15.70;99.90;;;;;;5055340;28;20045;-64
2021/08/08 05:42:18;;;;;;;11.93;8.73;;;15.70;99.90;;;;;;5061756;28;20052;-64
2021/08/08 05:44:43;;;;;;;8.13;7.32;;;15.80;99.90;;;;;;5054543;28;20052;-64
2021/08/08 05:47:09;;;;;;;11.77;7.40;;;15.90;99.90;;;;;;5061255;28;20065;-64
2021/08/08 05:49:35;;;;;;;11.13;5.97;;;15.90;99.90;;;;;;5054130;28;20137;-65
2021/08/08 05:52:03;;;;;;;8.90;6.10;;;16.00;99.90;;;;;;5059879;28;20055;-64
2021/08/08 05:54:29;;;;;;;9.00;5.72;;;16.10;99.90;;;;;;5055162;28;20042;-64
2021/08/08 05:56:55;;;;;;;6.47;5.22;;;16.20;99.90;;;;;;5057432;28;20037;-64
2021/08/08 05:59:21;;;;;;;8.00;5.00;;;16.10;99.90;;;;;;5056117;28;20068;-65
2021/08/08 06:01:47;;;;;;;7.15;4.32;;;16.20;99.90;;;;;;5055070;28;20049;-64
2021/08/08 06:04:12;;;;;;;8.07;4.90;;;16.20;99.90;;;;;;5057820;28;20132;-64
2021/08/08 06:06:38;;;;;;;7.60;4.13;;;16.30;99.90;;;;;;5051809;28;20052;-64
2021/08/08 06:09:04;;;;;;;9.70;3.92;;;16.40;99.90;;;;;;5058800;28;20045;-64
2021/08/08 06:11:30;;;;;;;6.82;3.08;;;16.70;99.90;;;;;;5051293;28;20120;-64
2021/08/08 06:13:56;;;;;;;5.97;3.55;;;16.90;99.90;;;;;;5056971;28;20033;-64
2021/08/08 06:16:22;;;;;;;6.57;2.67;;;17.00;99.90;;;;;;5050227;28;20091;-64
2021/08/08 06:18:48;;;;;;;6.03;3.10;;;17.20;99.90;;;;;;5056969;28;20136;-64
2021/08/08 06:21:14;;;;;;;7.10;3.45;;;17.30;99.90;;;;;;5050580;28;20052;-64
2021/08/08 06:23:40;;;;;;;4.70;3.53;;;17.00;99.90;;;;;;5060131;28;20045;-64
2021/08/08 06:26:06;;;;;;;7.07;3.83;;;16.80;99.90;;;;;;5052837;28;20162;-64
2021/08/08 06:28:32;;;;;;;6.38;3.88;;;16.60;99.90;;;;;;5059222;28;20041;-65
2021/08/08 06:30:58;;;;;;;10.68;4.95;;;16.50;99.90;;;;;;5061815;28;20048;-64
2021/08/08 06:33:23;;;;;;;7.50;5.05;;;16.30;99.90;;;;;;5054560;28;20044;-64
2021/08/08 06:35:51;;;;;;;8.80;5.43;;;16.20;99.90;;;;;;5060488;28;20071;-64
2021/08/08 06:38:17;;;;;;;6.47;5.03;;;16.10;99.90;;;;;;5053338;28;20041;-65
2021/08/08 06:40:43;;;;;;;7.20;4.63;;;16.10;99.90;;;;;;5060182;28;20056;-65
2021/08/08 06:43:09;;;;;;;6.32;4.20;;;16.10;99.90;;;;;;5052572;28;20524;-65
2021/08/08 06:45:34;;;;;;;6.55;4.60;;;16.10;99.90;;;;;;5059406;28;20068;-65
2021/08/08 06:48:01;;;;;;;9.27;4.72;;;16.30;99.90;;;;;;5054895;28;20103;-65
2021/08/08 06:50:28;;;;;;;7.40;5.07;;;16.30;99.90;;;;;;5058148;28;20111;-65
2021/08/08 06:52:54;;;;;;;7.80;4.30;;;16.40;99.90;;;;;;5065251;28;20052;-65
2021/08/08 06:55:20;;;;;;;7.68;4.38;;;16.50;99.90;;;;;;5057878;28;20044;-65
2021/08/08 06:57:46;;;;;;;6.03;4.78;;;16.40;99.90;;;;;;5064435;28;20047;-65
2021/08/08 07:00:12;;;;;;;6.60;5.07;;;16.40;99.90;;;;;;5056625;28;20041;-65
2021/08/08 07:02:38;;;;;;;7.10;4.93;;;16.40;99.90;;;;;;5063405;28;20060;-65
2021/08/08 07:05:05;;;;;;;12.75;5.57;;;16.30;99.90;;;;;;5055905;28;20053;-66
2021/08/08 07:07:32;;;;;;;8.68;5.40;;;16.30;99.90;;;;;;5062835;28;20037;-65
2021/08/08 07:09:57;;;;;;;11.43;5.90;;;16.30;99.90;;;;;;5056065;28;20050;-65
2021/08/08 07:12:23;;;;;;;11.82;5.32;;;16.40;99.90;;;;;;5061254;28;20043;-65
2021/08/08 07:14:49;;;;;;;8.27;5.00;;;16.40;99.90;;;;;;5053982;28;20137;-65
2021/08/08 07:17:15;;;;;;;10.55;5.93;;;16.50;99.90;;;;;;5058429;28;20045;-66
2021/08/08 07:19:42;;;;;;;11.93;5.43;;;16.50;99.90;;;;;;5058637;28;20056;-65
2021/08/08 07:22:08;;;;;;;11.70;5.95;;;16.50;99.90;;;;;;5055411;28;20049;-66
2021/08/08 07:24:34;;;;;;;8.35;5.72;;;16.50;99.90;;;;;;5059449;28;20041;-65
2021/08/08 07:27:01;;;;;;;15.10;6.45;;;16.50;99.90;;;;;;5053496;28;20041;-65
2021/08/08 07:29:26;;;;;;;25.42;7.85;;;16.50;99.90;;;;;;5061767;28;20041;-64
2021/08/08 07:31:53;;;;;;;13.27;6.78;;;16.30;99.90;;;;;;5060188;28;20048;-64
2021/08/08 07:34:19;;;;;;;14.35;7.45;;;16.00;99.90;;;;;;5055508;28;20144;-64
2021/08/08 07:36:45;;;;;;;21.50;8.48;;;16.00;99.90;;;;;;5046709;28;20037;-64
2021/08/08 07:39:11;;;;;;;14.23;7.93;;;15.90;99.90;;;;;;5059654;28;20053;-65
2021/08/08 07:41:37;;;;;;;13.20;6.22;;;16.00;99.90;;;;;;5061302;28;20041;-65
2021/08/08 07:44:02;;;;;;;17.55;6.72;;;15.90;99.90;;;;;;5053774;28;20053;-65
2021/08/08 07:46:28;;;;;;;14.10;6.07;;;15.80;99.90;;;;;;5060517;28;20044;-65
2021/08/08 07:48:54;;;;;;;11.55;6.68;;;15.80;99.90;;;;;;5052939;28;20061;-66
2021/08/08 07:51:20;;;;;;;17.63;7.03;;;15.90;99.90;;;;;;5064538;28;20075;-66
2021/08/08 07:53:45;;;;;;;12.38;6.68;;;15.90;99.90;;;;;;5051529;28;20040;-66
2021/08/08 07:56:11;;;;;;;17.58;7.00;;;16.10;99.90;;;;;;5057954;28;20045;-66
2021/08/08 07:58:37;;;;;;;17.08;7.72;;;16.40;99.90;;;;;;5064632;28;20044;-66
2021/08/08 08:01:03;;;;;;;12.95;5.70;;;16.80;99.90;;;;;;5057074;28;20045;-66
2021/08/08 08:03:29;;;;;;;16.02;6.40;;;16.70;99.90;;;;;;5063847;28;20045;-67
2021/08/08 08:05:56;;;;;;;13.90;6.00;;;16.50;99.90;;;;;;5055817;28;20048;-66
2021/08/08 08:08:22;;;;;;;16.65;6.45;;;16.40;99.90;;;;;;5062977;28;20094;-66
2021/08/08 08:10:48;;;;;;;20.63;6.30;;;16.40;99.90;;;;;;5056132;28;20095;-66
2021/08/08 08:13:13;;;;;;;15.55;7.07;;;16.40;99.90;;;;;;5062225;28;20045;-66
2021/08/08 08:15:39;;;;;;;15.63;6.15;;;16.50;99.90;;;;;;5050193;28;20100;-65
2021/08/08 08:18:05;;;;;;;11.40;5.13;;;16.70;99.90;;;;;;5066664;28;20045;-66
2021/08/08 08:20:32;;;;;;;17.58;6.13;;;16.80;99.90;;;;;;5050425;28;20041;-66
2021/08/08 08:22:57;;;;;;;20.58;6.05;;;16.80;99.90;;;;;;5061555;28;20048;-66
2021/08/08 08:25:23;;;;;;;11.82;5.40;;;16.90;99.90;;;;;;5053476;28;20061;-65
2021/08/08 08:27:50;;;;;;;11.02;5.38;;;16.70;99.90;;;;;;5061654;28;20492;-66
2021/08/08 08:30:16;;;;;;;18.30;6.93;;;16.60;99.90;;;;;;5062517;28;20159;-66
2021/08/08 08:32:42;;;;;;;17.92;7.35;;;16.60;99.90;;;;;;5055331;28;20049;-66
2021/08/08 08:35:08;;;;;;;15.68;6.68;;;16.50;99.90;;;;;;5061859;28;20037;-66
2021/08/08 08:37:34;;;;;;;18.00;5.60;;;16.50;99.90;;;;;;5055694;28;20072;-66
2021/08/08 08:40:02;;;;;;;16.00;7.22;;;16.50;99.90;;;;;;5060213;28;20048;-66
2021/08/08 08:42:29;;;;;;;12.75;5.95;;;16.50;99.90;;;;;;5056873;28;20041;-66
2021/08/08 08:44:56;;;;;;;9.38;5.95;;;16.50;99.90;;;;;;5057207;28;20059;-67
2021/08/08 08:47:23;;;;;;;12.73;6.50;;;16.50;99.90;;;;;;5060537;28;20045;-66
2021/08/08 08:49:58;;;;;;;16.23;6.25;;;16.80;99.90;;;;;;5059717;28;20140;-66
2021/08/08 08:52:26;;;;;;;20.15;6.07;;;17.10;99.90;;;;;;5058438;28;20042;-66
2021/08/08 08:54:53;;;;;;;15.80;6.03;;;17.40;99.90;;;;;;5055369;28;20041;-66
2021/08/08 08:57:19;;;;;;;16.57;6.27;;;17.50;99.90;;;;;;5059388;28;20132;-65
2021/08/08 08:59:47;;;;;;;17.55;6.18;;;17.60;99.90;;;;;;5053086;28;20746;-66
2021/08/08 09:02:13;;;;;;;;;;;17.70;99.90;;;;;;5060909;28;20064;-65
2021/08/08 09:04:38;;;;;;;15.32;5.97;;;17.70;99.90;;;;;;5052817;28;20014;-65
2021/08/08 09:07:05;;;;;;;22.40;7.10;;;17.90;99.90;;;;;;5058735;28;20492;-66
2021/08/08 09:09:32;;;;;;;15.45;6.20;;;17.90;99.90;;;;;;5052220;28;20044;-66
2021/08/08 09:11:58;;;;;;;16.38;5.80;;;17.90;99.90;;;;;;5058661;28;20048;-65
2021/08/08 09:14:24;;;;;;;14.68;5.50;;;17.80;99.90;;;;;;5044137;28;20052;-66
2021/08/08 09:16:52;;;;;;;15.68;5.03;;;18.00;99.90;;;;;;5058162;28;20041;-66
2021/08/08 09:19:24;;;;;;;11.88;4.47;;;18.00;99.90;;;;;;5050515;28;20064;-66
2021/08/08 09:21:51;;;;;;;15.05;4.05;;;18.00;99.90;;;;;;5056939;28;20040;-66
2021/08/08 09:24:32;;;;;;;12.85;3.50;;;17.90;99.90;;;;;;5063406;28;20044;-66
2021/08/08 09:27:12;;;;;;;6.55;3.42;;;17.80;99.90;;;;;;5056429;28;20056;-66
2021/08/08 09:29:43;;;;;;;12.38;3.83;;;17.80;99.90;;;;;;5058929;28;20045;-65
2021/08/08 09:32:10;;;;;;;12.93;3.47;;;18.00;99.90;;;;;;5051469;28;20045;-65
2021/08/08 09:34:41;;;;;;;10.85;3.65;;;18.00;99.90;;;;;;5074043;28;20049;-65
2021/08/08 09:37:15;;;;;;;11.88;3.63;;;18.00;99.90;;;;;;5050460;28;20045;-66
2021/08/08 09:39:43;;;;;;;13.68;4.57;;;17.90;99.90;;;;;;5057545;28;20151;-65
2021/08/08 09:42:11;;;;;;;11.50;3.58;;;18.00;99.90;;;;;;5050266;28;20056;-65
2021/08/08 09:44:38;;;;;;;17.65;4.68;;;18.00;99.90;;;;;;5056965;28;20056;-65
2021/08/08 09:47:05;;;;;;;11.68;3.80;;;18.00;99.90;;;;;;5062852;28;20045;-65
2021/08/08 09:49:31;;;;;;;15.60;4.28;;;18.00;99.90;;;;;;5055926;28;20057;-65
2021/08/08 09:51:56;;;;;;;13.23;3.65;;;17.90;99.90;;;;;;5062602;28;20048;-65
2021/08/08 09:54:22;;;;;;;9.32;4.20;;;17.70;99.90;;;;;;5054744;28;20072;-65
2021/08/08 09:56:58;;;;;;;16.70;3.95;;;17.80;99.90;;;;;;5063613;28;20056;-65
2021/08/08 09:59:24;;;;;;;13.25;3.55;;;17.80;99.90;;;;;;5058275;28;20104;-65
2021/08/08 10:01:50;;;;;;;12.02;4.00;;;17.80;99.90;;;;;;5063651;28;20041;-65
2021/08/08 10:04:16;;;;;;;13.77;3.80;;;17.80;99.90;;;;;;5056314;28;20118;-65
2021/08/08 10:06:44;;;;;;;14.02;3.90;;;17.80;99.90;;;;;;5062847;28;20100;-65
2021/08/08 10:09:14;;;;;;;16.13;5.35;;;17.90;99.90;;;;;;5056122;28;20048;-65
2021/08/08 10:11:43;;;;;;;17.63;4.95;;;18.00;99.90;;;;;;5062989;28;20049;-65
2021/08/08 10:14:11;;;;;;;10.52;4.38;;;18.30;99.90;;;;;;5055346;28;20063;-65
2021/08/08 10:16:39;;;;;;;;;;;18.20;99.90;;;;;;5062572;28;20061;-64
2021/08/08 10:19:06;;;;;;;16.17;4.40;;;18.60;99.90;;;;;;5054525;28;19967;-64
2021/08/08 10:21:33;;;;;;;18.08;4.57;;;18.80;99.90;;;;;;5061137;28;20071;-64
2021/08/08 10:24:02;;;;;;;13.05;4.05;;;18.90;99.90;;;;;;5053812;28;20516;-65
2021/08/08 10:26:29;;;;;;;19.67;4.00;;;19.00;99.90;;;;;;5060511;28;20044;-64
2021/08/08 10:28:56;;;;;;;15.27;3.70;;;19.20;99.90;;;;;;5062977;28;20033;-64
2021/08/08 10:31:24;;;;;;;19.35;4.43;;;19.20;99.90;;;;;;5055767;28;20068;-64
2021/08/08 10:33:53;;;;;;;21.33;4.28;;;19.30;99.90;;;;;;5059993;28;20100;-64
2021/08/08 10:36:29;;;;;;;19.10;3.30;;;19.30;99.90;;;;;;5054224;28;20478;-64
2021/08/08 10:39:13;;;;;;;17.92;3.78;;;19.50;99.90;;;;;;5062034;28;20041;-63
2021/08/08 10:41:41;;;;;;;16.40;4.22;;;19.50;99.90;;;;;;5054182;28;20045;-63
2021/08/08 10:44:14;;;;;;;19.15;4.28;;;19.60;99.90;;;;;;5060691;28;20049;-63
2021/08/08 10:46:51;;;;;;;10.90;3.33;;;19.90;99.90;;;;;;5060701;28;20132;-63
2021/08/08 10:49:35;;;;;;;14.93;3.65;;;20.20;99.90;;;;;;5057625;28;20068;-63
2021/08/08 10:52:05;;;;;;;18.52;3.78;;;20.10;99.90;;;;;;5052186;28;20045;-63
2021/08/08 10:54:48;;;;;;;17.70;3.75;;;20.20;99.90;;;;;;5059201;28;20048;-63
2021/08/08 10:57:18;;;;;;;14.98;3.60;;;20.40;99.90;;;;;;5052314;28;20045;-63
2021/08/08 10:59:49;;;;;;;18.67;4.05;;;20.10;99.90;;;;;;5059434;28;20045;-63
2021/08/08 11:02:23;;;;;;;12.57;3.65;;;20.10;99.90;;;;;;5062500;28;20038;-63
2021/08/08 11:04:49;;;;;;;14.15;3.75;;;20.20;99.90;;;;;;5058267;28;20053;-63
2021/08/08 11:07:17;;;;;;;13.38;3.58;;;20.50;99.90;;;;;;5063962;28;20048;-63
2021/08/08 11:09:43;;;;;;;;;;;20.30;99.90;;;;;;5066852;28;20048;-63
2021/08/08 11:12:10;;;;;;;12.88;3.60;;;20.30;99.90;;;;;;5064067;28;19921;-63
2021/08/08 11:14:46;;;;;;;11.50;3.25;;;20.20;99.90;;;;;;5056156;28;20071;-63
2021/08/08 11:17:12;;;;;;;12.45;2.88;;;20.00;99.90;;;;;;5063605;28;20060;-63
2021/08/08 11:19:40;;;;;;;13.75;2.88;;;19.90;99.90;;;;;;5055185;28;20488;-63
2021/08/08 11:22:20;;;;;;;10.93;3.05;;;19.90;99.90;;;;;;5061523;28;20048;-63
2021/08/08 11:25:01;;;;;;;13.65;3.42;;;19.70;99.90;;;;;;5066143;28;20049;-63
2021/08/08 11:27:28;;;;;;;13.20;3.67;;;19.60;99.90;;;;;;5061571;28;20041;-63
2021/08/08 11:29:55;;;;;;;11.80;3.95;;;19.50;99.90;;;;;;5064665;28;20056;-63
2021/08/08 11:32:27;;;;;;;12.07;3.42;;;19.50;99.90;;;;;;5053054;28;20493;-63
2021/08/08 11:35:09;;;;;;;10.88;2.90;;;19.90;99.90;;;;;;5063608;28;20056;-63
2021/08/08 11:37:40;;;;;;;12.98;4.00;;;20.00;99.90;;;;;;5056349;28;20104;-63
2021/08/08 11:40:28;;;;;;;12.15;3.42;;;20.10;99.90;;;;;;5062937;28;20412;-63
2021/08/08 11:43:05;;;;;;;10.90;3.28;;;19.90;99.90;;;;;;5055980;28;20049;-63
2021/08/08 11:45:35;;;;;;;8.52;3.05;;;20.10;99.90;;;;;;5059892;28;20037;-63
2021/08/08 11:48:01;;;;;;;8.60;3.25;;;20.30;99.90;;;;;;5055712;28;20037;-62
2021/08/08 11:50:28;;;;;;;10.50;2.65;;;20.40;99.90;;;;;;5059986;28;20057;-62
2021/08/08 11:52:59;;;;;;;13.63;3.83;;;20.40;99.90;;;;;;5054307;28;20401;-63
2021/08/08 11:55:26;;;;;;;10.45;3.10;;;20.90;99.90;;;;;;5060431;28;20501;-62
2021/08/08 11:58:11;;;;;;;10.82;3.05;;;21.20;99.90;;;;;;5053189;28;20052;-62
2021/08/08 12:00:41;;;;;;;12.57;3.10;;;21.70;99.90;;;;;;5045465;28;20049;-63
2021/08/08 12:03:09;;;;;;;9.75;3.00;;;21.80;99.90;;;;;;5047653;28;20053;-62
2021/08/08 12:05:37;;;;;;;13.80;3.47;;;21.60;99.90;;;;;;5058518;28;20041;-63
2021/08/08 12:08:07;;;;;;;11.82;3.35;;;21.40;99.90;;;;;;5051399;28;20069;-63
2021/08/08 12:10:35;;;;;;;14.23;3.30;;;21.30;99.90;;;;;;5061964;28;20056;-62
2021/08/08 12:13:12;;;;;;;9.20;2.25;;;21.40;99.90;;;;;;5060147;28;20408;-63
2021/08/08 12:15:38;;;;;;;8.95;3.03;;;21.10;99.90;;;;;;5060871;28;20045;-63
2021/08/08 12:18:05;;;;;;;11.95;3.00;;;20.40;99.90;;;;;;5059624;28;20041;-62
2021/08/08 12:20:42;;;;;;;8.75;3.05;;;20.20;99.90;;;;;;5057969;28;20051;-62
2021/08/08 12:23:17;;;;;;;9.10;2.83;;;20.20;99.90;;;;;;5059371;28;20043;-62
2021/08/08 12:25:45;;;;;;;11.13;2.33;;;20.30;99.90;;;;;;5058584;28;20404;-62
2021/08/08 12:28:22;;;;;;;12.82;2.95;;;20.80;99.90;;;;;;5059034;28;20144;-62
2021/08/08 12:30:48;;;;;;;11.65;2.88;;;20.90;99.90;;;;;;5050675;28;20046;-62
2021/08/08 12:33:16;;;;;;;8.55;2.90;;;21.00;99.90;;;;;;5057135;28;20048;-62
2021/08/08 12:35:44;;;;;;;10.68;3.20;;;21.30;99.90;;;;;;5058399;28;20045;-62
2021/08/08 12:38:15;;;;;;;10.13;2.65;;;21.70;99.90;;;;;;5060428;28;20040;-62
2021/08/08 12:40:50;;;;;;;13.88;3.40;;;21.50;99.90;;;;;;5059088;28;20141;-62